createdAt,value
2023-01-22T00:03:02.018Z,1013.84
2023-01-22T00:08:06.194Z,1013.88
2023-01-22T00:13:10.359Z,1013.68
2023-01-22T00:18:14.532Z,1013.45
2023-01-22T00:23:18.661Z,1013.33
2023-01-22T00:28:22.825Z,1013.28
2023-01-22T00:33:27.035Z,1013.33
2023-01-22T00:38:31.190Z,1013.28
2023-01-22T00:43:33.470Z,1013.24
2023-01-22T00:48:37.603Z,1013.21
2023-01-22T00:53:40.073Z,1013.15
2023-01-22T00:58:44.107Z,1013.10
2023-01-22T01:03:48.247Z,1013.05
2023-01-22T01:08:50.531Z,1013.01
2023-01-22T01:13:54.702Z,1013.02
2023-01-22T01:18:58.856Z,1013.02
2023-01-22T01:24:03.010Z,1012.97
2023-01-22T01:29:07.161Z,1013.03
2023-01-22T01:34:11.360Z,1013.01
2023-01-22T01:39:15.497Z,1013.06
2023-01-22T01:44:19.695Z,1013.06
2023-01-22T01:49:23.831Z,1012.94
2023-01-22T01:54:27.993Z,1012.88
2023-01-22T01:59:32.205Z,1012.77
2023-01-22T02:04:36.300Z,1012.67
2023-01-22T02:09:40.482Z,1012.52
2023-01-22T02:14:44.644Z,1012.56
2023-01-22T02:19:48.831Z,1012.43
2023-01-22T02:24:52.999Z,1012.32
2023-01-22T02:29:57.179Z,1012.31
2023-01-22T02:35:01.306Z,1012.19
2023-01-22T02:40:05.508Z,1012.16
2023-01-22T02:45:09.639Z,1012.06
2023-01-22T02:50:13.819Z,1011.97
2023-01-22T02:55:16.176Z,1012.00
2023-01-22T03:00:20.491Z,1012.08
2023-01-22T03:05:22.536Z,1012.04
2023-01-22T03:10:26.690Z,1011.97
2023-01-22T03:15:30.883Z,1011.99
2023-01-22T03:20:35.052Z,1011.96
2023-01-22T03:25:39.188Z,1011.94
2023-01-22T03:30:43.377Z,1011.79
2023-01-22T03:35:47.548Z,1011.71
2023-01-22T03:40:51.703Z,1011.74
2023-01-22T03:45:55.960Z,1011.62
2023-01-22T03:51:00.085Z,1011.68
2023-01-22T03:56:04.226Z,1011.64
2023-01-22T04:01:08.414Z,1011.58
2023-01-22T04:06:12.544Z,1011.48
2023-01-22T04:11:16.704Z,1011.36
2023-01-22T04:16:20.940Z,1011.29
2023-01-22T04:21:25.047Z,1011.27
2023-01-22T04:26:29.167Z,1011.08
2023-01-22T04:31:33.558Z,1011.08
2023-01-22T04:36:37.530Z,1010.98
2023-01-22T04:41:41.718Z,1010.84
2023-01-22T04:46:45.841Z,1010.81
2023-01-22T04:51:48.154Z,1010.80
2023-01-22T04:56:52.317Z,1010.80
2023-01-22T05:01:56.485Z,1010.71
2023-01-22T05:07:00.643Z,1010.57
2023-01-22T05:12:04.800Z,1010.51
2023-01-22T05:17:08.942Z,1010.43
2023-01-22T05:22:13.136Z,1010.40
2023-01-22T05:27:17.332Z,1010.36
2023-01-22T05:32:19.563Z,1010.40
2023-01-22T05:37:23.783Z,1010.30
2023-01-22T05:42:27.927Z,1010.33
2023-01-22T05:47:32.095Z,1010.22
2023-01-22T05:52:36.208Z,1010.29
2023-01-22T05:57:40.401Z,1010.19
2023-01-22T06:02:44.651Z,1010.18
2023-01-22T06:07:48.728Z,1010.15
2023-01-22T06:12:52.900Z,1010.16
2023-01-22T06:17:57.097Z,1010.20
2023-01-22T06:23:01.205Z,1010.11
2023-01-22T06:28:05.383Z,1010.04
2023-01-22T06:33:09.577Z,1010.11
2023-01-22T06:38:11.808Z,1010.14
2023-01-22T06:43:15.999Z,1010.17
2023-01-22T06:48:18.371Z,1010.29
2023-01-22T06:53:22.461Z,1010.17
2023-01-22T06:58:24.713Z,1010.27
2023-01-22T07:03:28.905Z,1010.28
2023-01-22T07:08:33.069Z,1010.32
2023-01-22T07:13:37.473Z,1010.38
2023-01-22T07:18:41.393Z,1010.34
2023-01-22T07:23:45.600Z,1010.49
2023-01-22T07:28:49.702Z,1010.49
2023-01-22T07:33:53.863Z,1010.53
2023-01-22T07:38:58.046Z,1010.57
2023-01-22T07:44:02.266Z,1010.61
2023-01-22T07:49:06.371Z,1010.54
2023-01-22T07:54:10.565Z,1010.59
2023-01-22T07:59:14.718Z,1010.69
2023-01-22T08:04:18.892Z,1010.67
2023-01-22T08:09:23.068Z,1010.69
2023-01-22T08:14:27.234Z,1010.77
2023-01-22T08:19:31.379Z,1010.77
2023-01-22T08:24:35.570Z,1010.67
2023-01-22T08:29:39.724Z,1010.66
2023-01-22T08:34:43.866Z,1010.66
2023-01-22T08:39:48.032Z,1010.66
2023-01-22T08:44:50.343Z,1010.71
2023-01-22T08:49:54.489Z,1010.71
2023-01-22T08:54:56.751Z,1010.73
2023-01-22T09:00:01.709Z,1010.73
2023-01-22T09:05:06.196Z,1010.64
2023-01-22T09:10:09.253Z,1010.61
2023-01-22T09:15:13.433Z,1010.60
2023-01-22T09:20:17.947Z,1010.63
2023-01-22T09:25:21.855Z,1010.62
2023-01-22T09:30:25.920Z,1010.53
2023-01-22T09:35:30.094Z,1010.60
2023-01-22T09:40:36.185Z,1010.68
2023-01-22T09:45:38.553Z,1010.75
2023-01-22T09:50:42.611Z,1010.77
2023-01-22T09:55:46.738Z,1010.72
2023-01-22T10:00:51.000Z,1010.69
2023-01-22T10:05:55.093Z,1010.67
2023-01-22T10:10:59.279Z,1010.64
2023-01-22T10:16:03.405Z,1010.53
2023-01-22T10:21:07.556Z,1010.63
2023-01-22T10:26:13.796Z,1010.67
2023-01-22T10:31:15.998Z,1010.67
2023-01-22T10:36:20.062Z,1010.56
2023-01-22T10:41:22.363Z,1010.55
2023-01-22T10:46:26.604Z,1010.63
2023-01-22T10:51:28.913Z,1010.62
2023-01-22T10:56:32.947Z,1010.56
2023-01-22T11:01:37.165Z,1010.63
2023-01-22T11:06:41.262Z,1010.79
2023-01-22T11:11:45.467Z,1010.84
2023-01-22T11:16:49.630Z,1010.79
2023-01-22T11:21:53.795Z,1010.84
2023-01-22T11:26:57.955Z,1010.75
2023-01-22T11:32:02.134Z,1010.84
2023-01-22T11:37:06.284Z,1010.89
2023-01-22T11:42:10.449Z,1010.96
2023-01-22T11:47:14.717Z,1010.98
2023-01-22T11:52:18.813Z,1010.95
2023-01-22T11:57:22.911Z,1010.96
2023-01-22T12:02:27.079Z,1011.01
2023-01-22T12:07:31.276Z,1010.92
2023-01-22T12:12:35.415Z,1010.96
2023-01-22T12:17:39.825Z,1010.99
2023-01-22T12:22:43.781Z,1010.96
2023-01-22T12:27:47.917Z,1010.96
2023-01-22T12:32:52.220Z,1010.92
2023-01-22T12:37:54.366Z,1011.07
2023-01-22T12:42:58.515Z,1011.01
2023-01-22T12:48:00.807Z,1011.02
2023-01-22T12:53:04.955Z,1010.99
2023-01-22T12:58:09.122Z,1010.91
2023-01-22T13:03:20.629Z,1010.84
2023-01-22T13:08:17.525Z,1010.88
2023-01-22T13:13:21.686Z,1010.75
2023-01-22T13:18:25.819Z,1010.81
2023-01-22T13:23:29.994Z,1010.80
2023-01-22T13:28:34.120Z,1010.79
2023-01-22T13:33:38.354Z,1010.86
2023-01-22T13:38:42.441Z,1010.85
2023-01-22T13:43:46.634Z,1010.94
2023-01-22T13:48:50.783Z,1010.90
2023-01-22T13:53:55.070Z,1010.90
2023-01-22T13:58:59.109Z,1010.90
2023-01-22T14:04:03.287Z,1010.86
2023-01-22T14:09:07.432Z,1010.90
2023-01-22T14:14:11.640Z,1010.94
2023-01-22T14:19:15.795Z,1010.95
2023-01-22T14:24:19.926Z,1011.06
2023-01-22T14:29:24.120Z,1011.07
2023-01-22T14:34:26.374Z,1011.01
2023-01-22T14:39:30.549Z,1011.09
2023-01-22T14:44:34.689Z,1011.07
2023-01-22T14:49:39.125Z,1011.11
2023-01-22T14:54:43.170Z,1011.21
2023-01-22T14:59:47.240Z,1011.21
2023-01-22T15:04:51.381Z,1011.16
2023-01-22T15:09:55.531Z,1011.21
2023-01-22T15:14:59.717Z,1011.20
2023-01-22T15:20:03.890Z,1011.27
2023-01-22T15:25:08.023Z,1011.27
2023-01-22T15:30:12.203Z,1011.32
2023-01-22T15:35:16.365Z,1011.34
2023-01-22T15:40:20.844Z,1011.40
2023-01-22T15:45:24.716Z,1011.45
2023-01-22T15:50:28.890Z,1011.50
2023-01-22T15:55:33.013Z,1011.53
2023-01-22T16:00:37.170Z,1011.47
2023-01-22T16:05:41.393Z,1011.46
2023-01-22T16:10:45.552Z,1011.48
2023-01-22T16:15:49.696Z,1011.41
2023-01-22T16:20:53.851Z,1011.39
2023-01-22T16:25:56.137Z,1011.36
2023-01-22T16:31:00.434Z,1011.35
2023-01-22T16:36:02.679Z,1011.30
2023-01-22T16:41:06.727Z,1011.29
2023-01-22T16:46:10.986Z,1011.20
2023-01-22T16:51:15.104Z,1011.25
2023-01-22T16:56:19.268Z,1011.30
2023-01-22T17:01:23.467Z,1011.20
2023-01-22T17:06:27.588Z,1011.29
2023-01-22T17:11:31.711Z,1011.19
2023-01-22T17:16:35.912Z,1011.23
2023-01-22T17:21:40.044Z,1011.23
2023-01-22T17:26:44.694Z,1011.25
2023-01-22T17:31:48.582Z,1011.26
2023-01-22T17:36:52.584Z,1011.22
2023-01-22T17:41:56.744Z,1011.26
2023-01-22T17:47:00.859Z,1011.24
2023-01-22T17:52:05.031Z,1011.27
2023-01-22T17:57:09.253Z,1011.46
2023-01-22T18:02:13.410Z,1011.45
2023-01-22T18:07:17.543Z,1011.41
2023-01-22T18:12:21.757Z,1011.50
2023-01-22T18:17:25.884Z,1011.46
2023-01-22T18:22:28.152Z,1011.47
2023-01-22T18:27:32.317Z,1011.52
2023-01-22T18:32:36.446Z,1011.53
2023-01-22T18:37:38.758Z,1011.56
2023-01-22T18:42:42.932Z,1011.61
2023-01-22T18:47:47.059Z,1011.52
2023-01-22T18:52:51.260Z,1011.54
2023-01-22T18:57:55.426Z,1011.63
2023-01-22T19:02:59.663Z,1011.70
2023-01-22T19:08:03.742Z,1011.72
2023-01-22T19:13:07.903Z,1011.75
2023-01-22T19:18:12.085Z,1011.78
2023-01-22T19:23:16.244Z,1011.75
2023-01-22T19:28:20.411Z,1011.87
2023-01-22T19:33:24.559Z,1011.83
2023-01-22T19:38:28.720Z,1011.81
2023-01-22T19:43:32.876Z,1011.99
2023-01-22T19:48:37.075Z,1011.88
2023-01-22T19:53:41.197Z,1011.90
2023-01-22T19:58:45.383Z,1011.98
2023-01-22T20:03:49.569Z,1011.93
2023-01-22T20:08:53.746Z,1012.00
2023-01-22T20:13:57.887Z,1012.00
2023-01-22T20:19:02.083Z,1012.05
2023-01-22T20:24:04.347Z,1011.96
2023-01-22T20:29:08.492Z,1012.09
2023-01-22T20:34:10.802Z,1012.12
2023-01-22T20:39:14.937Z,1012.03
2023-01-22T20:44:19.136Z,1012.11
2023-01-22T20:49:23.301Z,1012.15
2023-01-22T20:54:27.427Z,1012.18
2023-01-22T20:59:31.581Z,1012.18
2023-01-22T21:04:35.785Z,1012.19
2023-01-22T21:09:39.929Z,1012.19
2023-01-22T21:14:44.092Z,1012.22
2023-01-22T21:19:48.266Z,1012.18
2023-01-22T21:24:52.421Z,1012.23
2023-01-22T21:35:00.849Z,1012.20
2023-01-22T21:40:04.947Z,1012.20
2023-01-22T21:45:09.096Z,1012.17
2023-01-22T21:50:13.251Z,1012.20
2023-01-22T21:55:17.405Z,1012.15
2023-01-22T22:00:21.875Z,1012.21
2023-01-22T22:05:25.749Z,1012.16
2023-01-22T22:10:29.918Z,1012.17
2023-01-22T22:15:34.087Z,1012.06
2023-01-22T22:20:38.256Z,1012.06
2023-01-22T22:25:40.497Z,1012.14
2023-01-22T22:30:42.809Z,1012.14
2023-01-22T22:35:45.078Z,1012.14
2023-01-22T22:40:49.248Z,1012.20
2023-01-22T22:45:53.427Z,1012.21
2023-01-22T22:50:57.641Z,1012.28
2023-01-22T22:56:01.736Z,1012.30
2023-01-22T23:01:05.891Z,1012.33
2023-01-22T23:06:10.044Z,1012.31
2023-01-22T23:11:14.245Z,1012.28
2023-01-22T23:16:18.558Z,1012.35
2023-01-22T23:21:22.572Z,1012.37
2023-01-22T23:26:26.700Z,1012.40
2023-01-22T23:31:31.037Z,1012.32
2023-01-22T23:36:35.085Z,1012.50
2023-01-22T23:41:39.187Z,1012.41
2023-01-22T23:46:43.374Z,1012.59
2023-01-22T23:51:47.557Z,1012.71
2023-01-22T23:56:51.684Z,1012.82
